createdAt,value
2019-05-06T00:01:41.433Z,3.10
2019-05-06T00:04:09.198Z,3.10
2019-05-06T00:06:36.926Z,3.10
2019-05-06T00:09:05.709Z,3.00
2019-05-06T00:11:34.659Z,3.00
2019-05-06T00:14:03.983Z,2.90
2019-05-06T00:16:31.857Z,2.90
2019-05-06T00:18:59.500Z,2.80
2019-05-06T00:21:27.205Z,2.80
2019-05-06T00:23:54.929Z,2.70
2019-05-06T00:26:47.794Z,2.70
2019-05-06T00:29:17.662Z,2.70
2019-05-06T00:31:45.327Z,2.70
2019-05-06T00:34:13.871Z,2.70
2019-05-06T00:36:43.597Z,2.70
2019-05-06T00:39:21.779Z,2.70
2019-05-06T00:41:56.308Z,2.70
2019-05-06T00:44:23.967Z,2.80
2019-05-06T00:46:51.596Z,3.00
2019-05-06T00:49:19.244Z,2.90
2019-05-06T00:51:46.902Z,2.90
2019-05-06T00:54:18.593Z,3.00
2019-05-06T00:56:46.257Z,3.00
2019-05-06T00:59:14.351Z,3.10
2019-05-06T01:01:43.524Z,3.10
2019-05-06T01:04:11.332Z,3.20
2019-05-06T01:06:39.089Z,3.20
2019-05-06T01:09:09.909Z,3.30
2019-05-06T01:11:37.569Z,3.40
2019-05-06T01:14:14.691Z,3.60
2019-05-06T01:16:43.957Z,3.50
2019-05-06T01:19:14.007Z,3.50
2019-05-06T01:21:41.244Z,3.60
2019-05-06T01:24:08.965Z,3.70
2019-05-06T01:26:36.636Z,3.70
2019-05-06T01:29:04.302Z,3.70
2019-05-06T01:31:42.207Z,3.80
2019-05-06T01:34:01.510Z,3.90
2019-05-06T01:36:29.174Z,3.90
2019-05-06T01:39:04.470Z,4.00
2019-05-06T01:41:47.498Z,4.00
2019-05-06T01:44:15.226Z,4.10
2019-05-06T01:46:44.630Z,4.10
2019-05-06T01:49:13.788Z,4.10
2019-05-06T01:51:43.670Z,4.20
2019-05-06T01:54:11.204Z,4.20
2019-05-06T01:56:38.849Z,4.20
2019-05-06T01:59:06.493Z,4.20
2019-05-06T02:01:34.429Z,4.20
2019-05-06T02:04:04.211Z,4.30
2019-05-06T02:06:31.518Z,4.30
2019-05-06T02:08:59.145Z,4.30
2019-05-06T02:11:26.846Z,4.30
2019-05-06T02:13:54.479Z,4.30
2019-05-06T02:16:23.930Z,4.30
2019-05-06T02:18:53.868Z,4.30
2019-05-06T02:21:39.551Z,4.30
2019-05-06T02:24:10.918Z,4.30
2019-05-06T02:26:38.547Z,4.30
2019-05-06T02:29:08.761Z,4.30
2019-05-06T02:32:15.420Z,4.40
2019-05-06T02:34:36.391Z,4.40
2019-05-06T02:37:09.303Z,4.40
2019-05-06T02:39:36.937Z,4.40
2019-05-06T02:42:06.585Z,4.40
2019-05-06T02:44:34.280Z,4.40
2019-05-06T02:47:10.049Z,4.40
2019-05-06T02:49:44.297Z,4.50
2019-05-06T02:52:14.013Z,4.40
2019-05-06T02:54:42.746Z,4.40
2019-05-06T02:57:12.979Z,4.40
2019-05-06T02:59:39.879Z,4.50
2019-05-06T03:02:07.554Z,4.40
2019-05-06T03:04:35.222Z,4.50
2019-05-06T03:07:03.679Z,4.50
2019-05-06T03:09:33.931Z,4.50
2019-05-06T03:12:03.655Z,4.40
2019-05-06T03:14:30.565Z,4.50
2019-05-06T03:16:58.228Z,4.40
2019-05-06T03:19:27.362Z,4.50
2019-05-06T03:22:09.596Z,4.50
2019-05-06T03:24:45.777Z,4.50
2019-05-06T03:27:14.357Z,4.40
2019-05-06T03:29:44.553Z,4.40
2019-05-06T03:32:16.434Z,4.50
2019-05-06T03:35:01.400Z,4.40
2019-05-06T03:37:16.240Z,4.50
2019-05-06T03:39:43.113Z,4.50
2019-05-06T03:42:09.471Z,4.50
2019-05-06T03:44:38.944Z,4.50
2019-05-06T03:47:24.870Z,4.50
2019-05-06T03:49:54.572Z,4.50
2019-05-06T03:52:23.245Z,4.60
2019-05-06T03:54:53.617Z,4.60
2019-05-06T03:57:23.373Z,4.60
2019-05-06T03:59:52.997Z,4.60
2019-05-06T04:02:23.772Z,4.60
2019-05-06T04:04:56.042Z,4.60
2019-05-06T04:07:23.422Z,4.60
2019-05-06T04:09:53.201Z,4.70
2019-05-06T04:12:19.875Z,4.70
2019-05-06T04:14:48.439Z,4.70
2019-05-06T04:17:35.655Z,4.70
2019-05-06T04:20:38.461Z,4.70
2019-05-06T04:23:28.501Z,4.70
2019-05-06T04:26:23.951Z,4.80
2019-05-06T04:28:53.469Z,4.80
2019-05-06T04:31:22.834Z,4.80
2019-05-06T04:34:08.776Z,4.80
2019-05-06T04:36:20.179Z,4.90
2019-05-06T04:38:47.821Z,4.90
2019-05-06T04:41:15.615Z,4.90
2019-05-06T04:43:44.008Z,5.00
2019-05-06T04:46:16.508Z,5.00
2019-05-06T04:48:43.388Z,5.00
2019-05-06T04:51:13.607Z,5.00
2019-05-06T04:53:43.775Z,5.10
2019-05-06T04:56:10.075Z,5.10
2019-05-06T04:58:37.983Z,5.10
2019-05-06T05:01:05.599Z,5.20
2019-05-06T05:03:33.704Z,5.30
2019-05-06T05:06:05.034Z,5.30
2019-05-06T05:08:37.774Z,5.30
2019-05-06T05:11:29.138Z,5.30
2019-05-06T05:14:28.211Z,5.40
2019-05-06T05:17:27.507Z,5.50
2019-05-06T05:19:55.160Z,5.50
2019-05-06T05:22:22.818Z,5.50
2019-05-06T05:24:52.122Z,5.60
2019-05-06T05:27:21.931Z,5.70
2019-05-06T05:29:49.746Z,5.80
2019-05-06T05:32:17.446Z,5.80
2019-05-06T05:34:45.091Z,5.90
2019-05-06T05:37:13.069Z,5.90
2019-05-06T05:39:42.466Z,6.00
2019-05-06T05:42:22.038Z,6.10
2019-05-06T05:44:49.929Z,6.30
2019-05-06T05:47:17.798Z,6.30
2019-05-06T05:50:03.306Z,6.50
2019-05-06T05:52:32.897Z,6.60
2019-05-06T05:55:02.744Z,6.80
2019-05-06T05:57:32.227Z,6.90
2019-05-06T06:00:00.229Z,7.00
2019-05-06T06:02:27.879Z,7.10
2019-05-06T06:04:57.695Z,7.20
2019-05-06T06:07:25.052Z,7.30
2019-05-06T06:10:02.842Z,7.50
2019-05-06T06:12:32.399Z,7.60
2019-05-06T06:15:17.593Z,8.00
2019-05-06T06:18:07.551Z,7.90
2019-05-06T06:21:17.702Z,8.00
2019-05-06T06:23:37.557Z,8.10
2019-05-06T06:26:05.308Z,8.10
2019-05-06T06:28:33.344Z,8.20
2019-05-06T06:31:19.075Z,8.20
2019-05-06T06:33:47.971Z,8.30
2019-05-06T06:36:38.020Z,8.40
2019-05-06T06:39:22.897Z,8.50
2019-05-06T06:41:51.945Z,8.60
2019-05-06T06:44:23.101Z,8.50
2019-05-06T06:46:52.436Z,8.60
2019-05-06T06:49:22.260Z,8.70
2019-05-06T06:51:53.003Z,8.80
2019-05-06T06:54:20.093Z,8.90
2019-05-06T06:57:06.213Z,8.90
2019-05-06T06:59:37.953Z,9.10
2019-05-06T07:02:16.051Z,9.20
2019-05-06T07:04:52.588Z,9.30
2019-05-06T07:07:22.846Z,9.60
2019-05-06T07:09:52.503Z,9.90
2019-05-06T07:12:20.218Z,10.00
2019-05-06T07:14:52.237Z,10.20
2019-05-06T07:17:19.789Z,10.40
2019-05-06T07:19:52.746Z,10.70
2019-05-06T07:22:23.198Z,10.70
2019-05-06T07:24:52.695Z,10.80
2019-05-06T07:27:23.506Z,10.80
2019-05-06T07:29:52.268Z,10.90
2019-05-06T07:32:20.090Z,10.90
2019-05-06T07:34:47.740Z,10.80
2019-05-06T07:37:15.374Z,10.90
2019-05-06T07:39:43.276Z,10.90
2019-05-06T07:42:25.682Z,10.90
2019-05-06T07:45:15.843Z,10.90
2019-05-06T07:48:08.907Z,11.00
2019-05-06T07:50:36.572Z,11.10
2019-05-06T07:53:07.850Z,11.10
2019-05-06T07:55:37.121Z,11.20
2019-05-06T07:58:05.050Z,11.30
2019-05-06T08:00:32.972Z,11.50
2019-05-06T08:03:02.556Z,11.90
2019-05-06T08:05:32.183Z,12.00
2019-05-06T08:07:59.543Z,12.10
2019-05-06T08:10:27.416Z,12.50
2019-05-06T08:12:55.167Z,12.80
2019-05-06T08:15:22.962Z,13.00
2019-05-06T08:17:52.450Z,13.00
2019-05-06T08:20:22.210Z,13.20
2019-05-06T08:22:56.631Z,13.50
2019-05-06T08:25:24.456Z,13.80
2019-05-06T08:27:53.213Z,13.90
2019-05-06T08:30:22.901Z,14.20
2019-05-06T08:32:52.722Z,14.40
2019-05-06T08:35:20.060Z,14.70
2019-05-06T08:37:48.599Z,14.80
2019-05-06T08:40:16.558Z,14.70
2019-05-06T08:42:44.205Z,14.70
2019-05-06T08:45:12.936Z,14.80
2019-05-06T08:47:42.512Z,14.90
2019-05-06T08:50:18.453Z,14.70
2019-05-06T08:53:14.610Z,14.50
2019-05-06T08:55:43.779Z,14.30
2019-05-06T08:58:13.805Z,14.10
2019-05-06T09:00:47.493Z,13.90
2019-05-06T09:03:15.234Z,14.10
2019-05-06T09:05:46.073Z,14.20
2019-05-06T09:08:13.847Z,14.50
2019-05-06T09:10:42.946Z,14.70
2019-05-06T09:13:12.322Z,14.90
2019-05-06T09:15:40.067Z,15.10
2019-05-06T09:18:07.742Z,15.50
2019-05-06T09:20:35.406Z,15.90
2019-05-06T09:23:04.466Z,16.00
2019-05-06T09:25:32.553Z,16.20
2019-05-06T09:28:13.191Z,16.40
2019-05-06T09:30:47.539Z,16.50
2019-05-06T09:33:17.780Z,16.10
2019-05-06T09:35:45.463Z,16.10
2019-05-06T09:38:13.098Z,16.30
2019-05-06T09:40:43.089Z,16.30
2019-05-06T09:43:10.216Z,16.40
2019-05-06T09:45:37.870Z,16.50
2019-05-06T09:48:14.232Z,16.50
2019-05-06T09:50:46.307Z,16.20
2019-05-06T09:53:17.137Z,15.90
2019-05-06T09:56:04.294Z,15.60
2019-05-06T09:58:32.662Z,15.60
2019-05-06T10:01:02.644Z,15.50
2019-05-06T10:03:32.259Z,15.40
2019-05-06T10:06:02.520Z,15.50
2019-05-06T10:08:29.427Z,15.40
2019-05-06T10:10:59.847Z,15.40
2019-05-06T10:13:27.334Z,15.20
2019-05-06T10:15:57.536Z,15.10
2019-05-06T10:18:24.600Z,14.90
2019-05-06T10:20:52.262Z,15.10
2019-05-06T10:23:22.227Z,14.90
2019-05-06T10:25:49.364Z,14.80
2019-05-06T10:28:40.561Z,14.80
2019-05-06T10:31:12.585Z,14.80
2019-05-06T10:33:58.065Z,14.80
2019-05-06T10:36:32.585Z,14.70
2019-05-06T10:39:06.349Z,14.60
2019-05-06T10:41:37.959Z,14.40
2019-05-06T10:44:29.527Z,14.10
2019-05-06T10:46:57.182Z,13.90
2019-05-06T10:49:24.873Z,13.70
2019-05-06T10:52:02.231Z,13.70
2019-05-06T10:54:31.883Z,13.70
2019-05-06T10:57:24.939Z,13.70
2019-05-06T10:59:52.584Z,13.80
2019-05-06T11:02:52.373Z,13.70
2019-05-06T11:05:20.280Z,13.70
2019-05-06T11:07:47.973Z,13.60
2019-05-06T11:10:23.722Z,13.50
2019-05-06T11:12:45.309Z,13.40
2019-05-06T11:15:13.119Z,13.40
2019-05-06T11:17:43.404Z,13.40
2019-05-06T11:20:13.439Z,13.70
2019-05-06T11:22:39.971Z,13.90
2019-05-06T11:25:07.892Z,14.30
2019-05-06T11:27:39.583Z,14.60
2019-05-06T11:30:07.633Z,14.80
2019-05-06T11:33:04.778Z,14.90
2019-05-06T11:35:52.825Z,14.60
2019-05-06T11:38:22.628Z,14.50
2019-05-06T11:40:52.662Z,14.60
2019-05-06T11:43:19.754Z,14.90
2019-05-06T11:45:47.409Z,15.20
2019-05-06T11:48:15.070Z,15.50
2019-05-06T11:50:44.578Z,15.50
2019-05-06T11:53:12.563Z,15.50
2019-05-06T11:55:40.287Z,15.70
2019-05-06T11:58:27.453Z,15.60
2019-05-06T12:00:55.212Z,15.60
2019-05-06T12:03:23.307Z,15.70
2019-05-06T12:05:52.633Z,15.70
2019-05-06T12:08:22.179Z,15.50
2019-05-06T12:10:51.538Z,15.40
2019-05-06T12:13:19.377Z,15.50
2019-05-06T12:15:47.058Z,15.70
2019-05-06T12:18:14.671Z,15.60
2019-05-06T12:20:42.634Z,15.80
2019-05-06T12:23:10.381Z,15.80
2019-05-06T12:25:38.015Z,15.80
2019-05-06T12:28:05.639Z,15.80
2019-05-06T12:30:33.611Z,15.90
2019-05-06T12:33:35.980Z,16.10
2019-05-06T12:36:14.511Z,16.10
2019-05-06T12:39:06.291Z,16.30
2019-05-06T12:41:33.551Z,16.40
2019-05-06T12:44:03.139Z,16.30
2019-05-06T12:46:36.970Z,16.40
2019-05-06T12:49:04.787Z,16.50
2019-05-06T12:51:32.433Z,16.50
2019-05-06T12:54:00.073Z,16.30
2019-05-06T12:56:28.218Z,16.20
2019-05-06T12:58:55.871Z,15.70
2019-05-06T13:01:23.512Z,15.20
2019-05-06T13:03:52.592Z,14.80
2019-05-06T13:06:25.988Z,14.50
2019-05-06T13:08:58.808Z,14.10
2019-05-06T13:11:20.636Z,13.80
2019-05-06T13:13:57.373Z,13.60
2019-05-06T13:16:17.804Z,13.40
2019-05-06T13:18:47.322Z,13.10
2019-05-06T13:21:14.882Z,12.40
2019-05-06T13:23:46.511Z,11.70
2019-05-06T13:26:14.134Z,11.20
2019-05-06T13:28:45.606Z,10.80
2019-05-06T13:31:19.834Z,10.60
2019-05-06T13:33:59.549Z,10.40
2019-05-06T13:36:27.209Z,10.40
2019-05-06T13:39:09.446Z,10.40
2019-05-06T13:41:24.306Z,10.50
2019-05-06T13:44:13.204Z,10.60
2019-05-06T13:46:44.278Z,10.80
2019-05-06T13:49:43.338Z,10.90
2019-05-06T13:52:12.845Z,11.00
2019-05-06T13:54:42.222Z,11.10
2019-05-06T13:57:12.223Z,11.20
2019-05-06T13:59:39.701Z,11.30
2019-05-06T14:02:34.085Z,11.20
2019-05-06T14:05:12.130Z,11.20
2019-05-06T14:07:40.033Z,11.20
2019-05-06T14:10:07.881Z,11.10
2019-05-06T14:12:35.563Z,11.00
2019-05-06T14:15:04.541Z,10.80
2019-05-06T14:17:32.821Z,10.60
2019-05-06T14:20:02.646Z,10.60
2019-05-06T14:22:32.441Z,10.60
2019-05-06T14:25:28.322Z,10.60
2019-05-06T14:28:02.978Z,10.50
2019-05-06T14:30:48.925Z,10.50
2019-05-06T14:33:18.693Z,10.50
2019-05-06T14:35:46.342Z,10.40
2019-05-06T14:38:13.991Z,10.40
2019-05-06T14:41:08.120Z,10.30
2019-05-06T14:43:34.490Z,10.10
2019-05-06T14:46:02.286Z,9.90
2019-05-06T14:48:29.921Z,9.70
2019-05-06T14:50:57.545Z,9.60
2019-05-06T14:53:25.303Z,9.60
2019-05-06T14:55:54.358Z,9.60
2019-05-06T14:58:22.839Z,9.70
2019-05-06T15:00:53.194Z,9.70
2019-05-06T15:03:22.008Z,9.70
2019-05-06T15:05:49.866Z,9.80
2019-05-06T15:08:17.558Z,9.80
2019-05-06T15:10:45.264Z,9.90
2019-05-06T15:13:12.926Z,10.00
2019-05-06T15:15:42.880Z,10.20
2019-05-06T15:18:10.016Z,10.20
2019-05-06T15:20:37.664Z,10.30
2019-05-06T15:23:05.330Z,10.30
2019-05-06T15:25:33.108Z,10.30
2019-05-06T15:28:02.526Z,10.30
2019-05-06T15:30:40.066Z,10.30
2019-05-06T15:33:09.753Z,10.30
2019-05-06T15:35:58.975Z,10.30
2019-05-06T15:38:27.523Z,10.40
2019-05-06T15:40:55.280Z,10.40
2019-05-06T15:43:22.880Z,10.40
2019-05-06T15:45:52.671Z,10.50
2019-05-06T15:48:22.062Z,10.40
2019-05-06T15:50:49.533Z,10.30
2019-05-06T15:53:17.158Z,10.10
2019-05-06T15:55:44.784Z,10.00
2019-05-06T15:58:12.558Z,9.70
2019-05-06T16:00:42.257Z,9.60
2019-05-06T16:03:09.791Z,9.60
2019-05-06T16:05:37.437Z,9.70
2019-05-06T16:08:05.096Z,9.80
2019-05-06T16:10:43.337Z,10.00
2019-05-06T16:13:02.439Z,10.00
2019-05-06T16:15:32.519Z,10.00
2019-05-06T16:18:02.261Z,10.00
2019-05-06T16:20:29.175Z,10.10
2019-05-06T16:23:06.562Z,10.10
2019-05-06T16:25:34.237Z,10.10
2019-05-06T16:28:02.310Z,10.10
2019-05-06T16:30:30.127Z,10.10
2019-05-06T16:32:57.789Z,10.10
2019-05-06T16:35:25.449Z,10.10
2019-05-06T16:37:53.064Z,10.00
2019-05-06T16:40:22.968Z,10.00
2019-05-06T16:42:53.401Z,10.00
2019-05-06T16:45:20.420Z,10.00
2019-05-06T16:47:48.073Z,10.10
2019-05-06T16:50:16.593Z,10.10
2019-05-06T16:52:45.394Z,10.00
2019-05-06T16:55:17.531Z,10.00
2019-05-06T16:57:52.360Z,10.00
2019-05-06T17:00:22.546Z,9.90
2019-05-06T17:03:00.290Z,9.90
2019-05-06T17:05:43.905Z,9.80
2019-05-06T17:08:12.349Z,9.70
2019-05-06T17:10:40.417Z,9.70
2019-05-06T17:13:08.199Z,9.60
2019-05-06T17:15:35.795Z,9.60
2019-05-06T17:18:03.423Z,9.50
2019-05-06T17:20:32.600Z,9.50
2019-05-06T17:23:02.669Z,9.40
2019-05-06T17:25:29.870Z,9.30
2019-05-06T17:28:12.454Z,9.20
2019-05-06T17:30:51.645Z,9.10
2019-05-06T17:33:33.511Z,9.00
2019-05-06T17:36:03.057Z,8.80
2019-05-06T17:38:35.859Z,8.60
2019-05-06T17:41:03.482Z,8.30
2019-05-06T17:43:32.275Z,8.10
2019-05-06T17:46:03.171Z,8.00
2019-05-06T17:48:58.964Z,8.00
2019-05-06T17:51:33.041Z,7.90
2019-05-06T17:54:01.345Z,7.80
2019-05-06T17:56:29.008Z,7.80
2019-05-06T17:58:56.757Z,7.80
2019-05-06T18:01:32.580Z,7.80
2019-05-06T18:04:02.101Z,7.80
2019-05-06T18:06:29.414Z,7.70
2019-05-06T18:08:57.026Z,7.60
2019-05-06T18:11:24.811Z,7.60
2019-05-06T18:13:52.481Z,7.60
2019-05-06T18:16:22.099Z,7.60
2019-05-06T18:18:49.587Z,7.60
2019-05-06T18:21:17.268Z,7.60
2019-05-06T18:23:44.886Z,7.60
2019-05-06T18:26:12.771Z,7.60
2019-05-06T18:28:40.505Z,7.60
2019-05-06T18:31:09.970Z,7.70
2019-05-06T18:33:37.634Z,7.70
2019-05-06T18:36:06.378Z,7.70
2019-05-06T18:38:34.252Z,7.70
2019-05-06T18:41:02.062Z,7.70
2019-05-06T18:43:29.852Z,7.70
2019-05-06T18:45:57.508Z,7.60
2019-05-06T18:48:27.883Z,7.60
2019-05-06T18:50:54.605Z,7.60
2019-05-06T18:53:22.666Z,7.60
2019-05-06T18:55:50.417Z,7.60
2019-05-06T18:58:18.106Z,7.60
2019-05-06T19:00:45.727Z,7.60
2019-05-06T19:03:13.500Z,7.60
2019-05-06T19:05:42.925Z,7.50
2019-05-06T19:08:38.895Z,7.50
2019-05-06T19:11:11.783Z,7.50
2019-05-06T19:13:39.011Z,7.50
2019-05-06T19:16:06.768Z,7.40
2019-05-06T19:18:34.410Z,7.50
2019-05-06T19:21:02.670Z,7.40
2019-05-06T19:23:32.012Z,7.40
2019-05-06T19:25:59.913Z,7.40
2019-05-06T19:28:27.543Z,7.40
2019-05-06T19:30:55.209Z,7.40
2019-05-06T19:33:22.870Z,7.40
2019-05-06T19:35:52.283Z,7.40
2019-05-06T19:38:21.761Z,7.30
2019-05-06T19:40:49.492Z,7.30
2019-05-06T19:43:17.171Z,7.40
2019-05-06T19:45:44.905Z,7.30
2019-05-06T19:48:13.403Z,7.30
2019-05-06T19:50:42.492Z,7.30
2019-05-06T19:53:11.832Z,7.30
2019-05-06T19:55:39.578Z,7.30
2019-05-06T19:58:07.219Z,7.30
2019-05-06T20:00:34.838Z,7.30
2019-05-06T20:03:02.817Z,7.30
2019-05-06T20:05:55.789Z,7.30
2019-05-06T20:08:33.665Z,7.30
2019-05-06T20:11:16.845Z,7.30
2019-05-06T20:13:44.578Z,7.30
2019-05-06T20:16:12.520Z,7.20
2019-05-06T20:18:42.508Z,7.40
2019-05-06T20:21:10.030Z,7.20
2019-05-06T20:23:37.653Z,7.20
2019-05-06T20:26:05.274Z,7.20
2019-05-06T20:28:32.968Z,7.20
2019-05-06T20:31:02.496Z,7.20
2019-05-06T20:33:32.517Z,7.20
2019-05-06T20:35:59.565Z,7.20
2019-05-06T20:38:27.231Z,7.20
2019-05-06T20:40:54.889Z,7.20
2019-05-06T20:43:24.019Z,7.20
2019-05-06T20:45:52.292Z,7.20
2019-05-06T20:48:20.007Z,7.20
2019-05-06T20:51:00.180Z,7.20
2019-05-06T20:53:27.801Z,6.90
2019-05-06T20:55:56.338Z,7.20
2019-05-06T20:58:23.983Z,7.20
2019-05-06T21:00:52.118Z,7.20
2019-05-06T21:03:21.959Z,7.20
2019-05-06T21:05:49.528Z,7.10
2019-05-06T21:08:17.146Z,7.10
2019-05-06T21:10:44.819Z,7.20
2019-05-06T21:13:13.352Z,7.20
2019-05-06T21:15:43.180Z,7.20
2019-05-06T21:18:12.099Z,7.10
2019-05-06T21:20:39.975Z,7.10
2019-05-06T21:23:07.603Z,7.10
2019-05-06T21:25:35.252Z,7.10
2019-05-06T21:28:03.136Z,7.10
2019-05-06T21:30:32.309Z,7.10
2019-05-06T21:33:00.251Z,7.00
2019-05-06T21:35:27.893Z,7.00
2019-05-06T21:37:55.506Z,7.00
2019-05-06T21:40:23.188Z,7.00
2019-05-06T21:42:50.815Z,6.90
2019-05-06T21:45:18.705Z,6.90
2019-05-06T21:47:46.531Z,6.90
2019-05-06T21:50:14.486Z,6.80
2019-05-06T21:52:43.043Z,6.80
2019-05-06T21:55:13.128Z,6.80
2019-05-06T21:57:42.256Z,6.80
2019-05-06T22:00:13.767Z,6.70
2019-05-06T22:02:42.233Z,6.70
2019-05-06T22:05:10.218Z,6.70
2019-05-06T22:07:37.998Z,6.70
2019-05-06T22:10:05.945Z,6.70
2019-05-06T22:12:33.604Z,6.70
2019-05-06T22:15:04.841Z,6.60
2019-05-06T22:17:32.025Z,6.60
2019-05-06T22:19:59.755Z,6.60
2019-05-06T22:22:28.783Z,6.50
2019-05-06T22:24:57.987Z,6.50
2019-05-06T22:27:28.965Z,6.60
2019-05-06T22:29:56.694Z,6.50
2019-05-06T22:32:24.358Z,6.50
2019-05-06T22:34:52.121Z,6.60
2019-05-06T22:37:21.902Z,6.50
2019-05-06T22:39:49.276Z,6.50
2019-05-06T22:42:16.917Z,6.50
2019-05-06T22:44:44.571Z,6.50
2019-05-06T22:47:12.316Z,6.50
2019-05-06T22:49:39.972Z,6.50
2019-05-06T22:52:07.643Z,6.50
2019-05-06T22:54:35.308Z,6.50
2019-05-06T22:57:02.957Z,6.50
2019-05-06T22:59:32.831Z,6.50
2019-05-06T23:02:25.293Z,6.40
2019-05-06T23:04:55.830Z,6.40
2019-05-06T23:07:23.973Z,6.40
2019-05-06T23:09:52.152Z,6.30
2019-05-06T23:12:19.963Z,6.30
2019-05-06T23:14:47.635Z,6.30
2019-05-06T23:17:15.300Z,6.30
2019-05-06T23:19:43.018Z,6.30
2019-05-06T23:22:12.036Z,6.30
2019-05-06T23:24:40.174Z,6.30
2019-05-06T23:27:07.844Z,6.20
2019-05-06T23:29:35.503Z,6.20
2019-05-06T23:32:03.585Z,6.20
2019-05-06T23:34:32.462Z,6.10
2019-05-06T23:37:22.528Z,6.10
2019-05-06T23:40:30.382Z,6.10
2019-05-06T23:43:34.873Z,6.10
2019-05-06T23:46:39.174Z,6.20
2019-05-06T23:49:43.443Z,6.00
2019-05-06T23:52:47.623Z,6.00
2019-05-06T23:55:52.308Z,5.90
2019-05-06T23:58:18.892Z,5.90
